Puritas Park, Ohio
Current Conditions -  °F | °C
As of 7:58 PM on Tuesday 21 Oct 2014 (Local Time) from KCLE Reporting Station
Light Rain Light Rain  
Wind Chill: 42°   Ceiling: 1500
Heat Index: 47°   Visibility: 6mi
Dew Point: 44°   Wind: 12mph
Humidity: 90%   Direction: 350°N
Pressure: 30.09"   Gusts: NA
Location:  41.4315°N, 81.8114°W
Report Text: KCLE 212358Z 35010KT 6SM -RA BR SCT008 BKN015 OVC022 08/07 A3009 RMK AO2 P0001 T00830067 $
Loading
Personal Weather Stations






























Interactive Weather Map
Tropical Storm Tracking
New forecast layout! Learn more

10-Day Weather Forecast

Advertisements
Track Severe Weather on mobile